sensor_id;sensor_type;location;lat;lon;timestamp;P1;durP1;ratioP1;P2;durP2;ratioP2
25535;SDS011;13431;51.352;6.412;2022-12-18T00:03:55;22.55;;;13.85;;
25535;SDS011;13431;51.352;6.412;2022-12-18T00:06:23;19.88;;;13.10;;
25535;SDS011;13431;51.352;6.412;2022-12-18T00:08:54;23.15;;;14.23;;
25535;SDS011;13431;51.352;6.412;2022-12-18T00:11:23;21.38;;;14.40;;
25535;SDS011;13431;51.352;6.412;2022-12-18T00:13:53;18.25;;;14.65;;
25535;SDS011;13431;51.352;6.412;2022-12-18T00:16:22;21.70;;;15.30;;
25535;SDS011;13431;51.352;6.412;2022-12-18T00:18:54;21.88;;;15.27;;
25535;SDS011;13431;51.352;6.412;2022-12-18T00:21:26;19.80;;;14.80;;
25535;SDS011;13431;51.352;6.412;2022-12-18T00:23:55;19.02;;;14.50;;
25535;SDS011;13431;51.352;6.412;2022-12-18T00:26:24;21.05;;;13.93;;
25535;SDS011;13431;51.352;6.412;2022-12-18T00:29:00;18.25;;;13.98;;
25535;SDS011;13431;51.352;6.412;2022-12-18T00:31:31;17.60;;;13.07;;
25535;SDS011;13431;51.352;6.412;2022-12-18T00:34:00;19.30;;;13.27;;
25535;SDS011;13431;51.352;6.412;2022-12-18T00:36:29;18.95;;;12.93;;
25535;SDS011;13431;51.352;6.412;2022-12-18T00:38:59;18.20;;;13.15;;
25535;SDS011;13431;51.352;6.412;2022-12-18T00:41:28;18.05;;;13.80;;
25535;SDS011;13431;51.352;6.412;2022-12-18T00:44:15;18.88;;;13.00;;
25535;SDS011;13431;51.352;6.412;2022-12-18T00:46:44;19.00;;;13.52;;
25535;SDS011;13431;51.352;6.412;2022-12-18T00:49:14;18.98;;;13.18;;
25535;SDS011;13431;51.352;6.412;2022-12-18T00:51:42;19.17;;;13.00;;
25535;SDS011;13431;51.352;6.412;2022-12-18T00:54:10;16.35;;;12.82;;
25535;SDS011;13431;51.352;6.412;2022-12-18T00:56:38;18.27;;;12.30;;
25535;SDS011;13431;51.352;6.412;2022-12-18T00:59:14;19.77;;;13.38;;
25535;SDS011;13431;51.352;6.412;2022-12-18T01:01:42;18.20;;;12.48;;
25535;SDS011;13431;51.352;6.412;2022-12-18T01:04:10;19.33;;;12.95;;
25535;SDS011;13431;51.352;6.412;2022-12-18T01:06:38;17.30;;;11.95;;
25535;SDS011;13431;51.352;6.412;2022-12-18T01:09:06;17.13;;;11.77;;
25535;SDS011;13431;51.352;6.412;2022-12-18T01:11:36;18.90;;;12.18;;
25535;SDS011;13431;51.352;6.412;2022-12-18T01:14:04;14.68;;;11.77;;
25535;SDS011;13431;51.352;6.412;2022-12-18T01:16:31;18.23;;;13.00;;
25535;SDS011;13431;51.352;6.412;2022-12-18T01:18:59;19.38;;;12.57;;
25535;SDS011;13431;51.352;6.412;2022-12-18T01:21:26;18.25;;;12.25;;
25535;SDS011;13431;51.352;6.412;2022-12-18T01:23:55;16.42;;;12.68;;
25535;SDS011;13431;51.352;6.412;2022-12-18T01:26:23;16.95;;;12.57;;
25535;SDS011;13431;51.352;6.412;2022-12-18T01:28:53;16.48;;;12.43;;
25535;SDS011;13431;51.352;6.412;2022-12-18T01:31:23;16.45;;;12.05;;
25535;SDS011;13431;51.352;6.412;2022-12-18T01:33:56;17.75;;;12.32;;
25535;SDS011;13431;51.352;6.412;2022-12-18T01:36:27;17.20;;;12.25;;
25535;SDS011;13431;51.352;6.412;2022-12-18T01:38:58;19.13;;;12.05;;
25535;SDS011;13431;51.352;6.412;2022-12-18T01:41:28;19.92;;;13.52;;
25535;SDS011;13431;51.352;6.412;2022-12-18T01:50:15;22.15;;;12.13;;
25535;SDS011;13431;51.352;6.412;2022-12-18T01:52:46;19.50;;;13.00;;
25535;SDS011;13431;51.352;6.412;2022-12-18T01:55:16;16.20;;;12.60;;
25535;SDS011;13431;51.352;6.412;2022-12-18T01:57:46;18.63;;;12.38;;
25535;SDS011;13431;51.352;6.412;2022-12-18T02:00:17;17.48;;;11.95;;
25535;SDS011;13431;51.352;6.412;2022-12-18T02:02:46;17.45;;;12.30;;
25535;SDS011;13431;51.352;6.412;2022-12-18T02:05:18;19.08;;;13.07;;
25535;SDS011;13431;51.352;6.412;2022-12-18T02:13:16;17.92;;;12.80;;
25535;SDS011;13431;51.352;6.412;2022-12-18T02:16:17;19.80;;;13.30;;
25535;SDS011;13431;51.352;6.412;2022-12-18T02:18:53;19.33;;;12.52;;
25535;SDS011;13431;51.352;6.412;2022-12-18T02:26:58;18.60;;;13.50;;
25535;SDS011;13431;51.352;6.412;2022-12-18T02:29:39;15.93;;;12.93;;
25535;SDS011;13431;51.352;6.412;2022-12-18T02:32:14;19.70;;;12.93;;
25535;SDS011;13431;51.352;6.412;2022-12-18T02:34:45;19.85;;;12.13;;
25535;SDS011;13431;51.352;6.412;2022-12-18T02:37:16;20.48;;;13.52;;
25535;SDS011;13431;51.352;6.412;2022-12-18T02:39:47;15.95;;;12.25;;
25535;SDS011;13431;51.352;6.412;2022-12-18T02:42:16;17.33;;;13.20;;
25535;SDS011;13431;51.352;6.412;2022-12-18T02:44:48;18.48;;;12.90;;
25535;SDS011;13431;51.352;6.412;2022-12-18T02:47:24;20.08;;;13.52;;
25535;SDS011;13431;51.352;6.412;2022-12-18T02:52:45;17.83;;;12.32;;
25535;SDS011;13431;51.352;6.412;2022-12-18T02:55:41;20.00;;;11.60;;
25535;SDS011;13431;51.352;6.412;2022-12-18T02:58:30;16.80;;;11.65;;
25535;SDS011;13431;51.352;6.412;2022-12-18T03:04:10;16.45;;;11.38;;
25535;SDS011;13431;51.352;6.412;2022-12-18T03:06:49;17.80;;;12.32;;
25535;SDS011;13431;51.352;6.412;2022-12-18T03:09:22;19.00;;;12.30;;
25535;SDS011;13431;51.352;6.412;2022-12-18T03:12:01;15.95;;;12.40;;
25535;SDS011;13431;51.352;6.412;2022-12-18T03:15:02;17.80;;;12.27;;
25535;SDS011;13431;51.352;6.412;2022-12-18T03:17:31;18.33;;;12.02;;
25535;SDS011;13431;51.352;6.412;2022-12-18T03:20:12;19.60;;;12.63;;
25535;SDS011;13431;51.352;6.412;2022-12-18T03:22:42;19.40;;;12.70;;
25535;SDS011;13431;51.352;6.412;2022-12-18T03:25:13;19.17;;;13.88;;
25535;SDS011;13431;51.352;6.412;2022-12-18T03:27:49;18.23;;;12.57;;
25535;SDS011;13431;51.352;6.412;2022-12-18T03:30:20;17.45;;;12.93;;
25535;SDS011;13431;51.352;6.412;2022-12-18T03:35:44;19.23;;;13.57;;
25535;SDS011;13431;51.352;6.412;2022-12-18T03:38:12;17.35;;;12.95;;
25535;SDS011;13431;51.352;6.412;2022-12-18T03:44:13;18.50;;;13.38;;
25535;SDS011;13431;51.352;6.412;2022-12-18T03:52:34;20.95;;;13.23;;
25535;SDS011;13431;51.352;6.412;2022-12-18T03:55:07;17.17;;;12.55;;
25535;SDS011;13431;51.352;6.412;2022-12-18T03:57:37;17.85;;;13.40;;
25535;SDS011;13431;51.352;6.412;2022-12-18T04:00:08;17.73;;;13.25;;
25535;SDS011;13431;51.352;6.412;2022-12-18T04:02:52;18.17;;;12.88;;
25535;SDS011;13431;51.352;6.412;2022-12-18T04:05:29;18.67;;;12.35;;
25535;SDS011;13431;51.352;6.412;2022-12-18T04:08:00;18.88;;;13.27;;
25535;SDS011;13431;51.352;6.412;2022-12-18T04:10:31;18.58;;;12.75;;
25535;SDS011;13431;51.352;6.412;2022-12-18T04:13:00;16.92;;;12.23;;
25535;SDS011;13431;51.352;6.412;2022-12-18T04:15:28;18.58;;;13.38;;
25535;SDS011;13431;51.352;6.412;2022-12-18T04:17:57;17.00;;;12.20;;
25535;SDS011;13431;51.352;6.412;2022-12-18T04:20:31;19.67;;;13.07;;
25535;SDS011;13431;51.352;6.412;2022-12-18T04:22:59;17.65;;;13.27;;
25535;SDS011;13431;51.352;6.412;2022-12-18T04:25:27;18.35;;;13.40;;
25535;SDS011;13431;51.352;6.412;2022-12-18T04:28:06;18.55;;;12.82;;
25535;SDS011;13431;51.352;6.412;2022-12-18T04:30:35;18.83;;;12.95;;
25535;SDS011;13431;51.352;6.412;2022-12-18T04:33:02;19.10;;;13.15;;
25535;SDS011;13431;51.352;6.412;2022-12-18T04:35:31;17.45;;;12.10;;
25535;SDS011;13431;51.352;6.412;2022-12-18T04:37:58;17.65;;;13.00;;
25535;SDS011;13431;51.352;6.412;2022-12-18T04:40:26;18.05;;;12.77;;
25535;SDS011;13431;51.352;6.412;2022-12-18T04:42:54;16.98;;;12.82;;
25535;SDS011;13431;51.352;6.412;2022-12-18T04:45:21;20.48;;;12.13;;
25535;SDS011;13431;51.352;6.412;2022-12-18T04:47:49;15.38;;;11.52;;
25535;SDS011;13431;51.352;6.412;2022-12-18T04:50:16;15.85;;;12.05;;
25535;SDS011;13431;51.352;6.412;2022-12-18T04:52:44;17.65;;;12.50;;
25535;SDS011;13431;51.352;6.412;2022-12-18T04:55:12;16.42;;;12.32;;
25535;SDS011;13431;51.352;6.412;2022-12-18T04:57:39;15.18;;;11.52;;
25535;SDS011;13431;51.352;6.412;2022-12-18T05:00:07;16.90;;;11.98;;
25535;SDS011;13431;51.352;6.412;2022-12-18T05:02:35;16.95;;;12.35;;
25535;SDS011;13431;51.352;6.412;2022-12-18T05:05:02;15.90;;;10.90;;
25535;SDS011;13431;51.352;6.412;2022-12-18T05:07:30;18.33;;;11.43;;
25535;SDS011;13431;51.352;6.412;2022-12-18T05:09:57;20.08;;;12.85;;
25535;SDS011;13431;51.352;6.412;2022-12-18T05:12:25;17.27;;;12.77;;
25535;SDS011;13431;51.352;6.412;2022-12-18T05:14:52;15.57;;;11.60;;
25535;SDS011;13431;51.352;6.412;2022-12-18T05:17:20;18.55;;;11.48;;
25535;SDS011;13431;51.352;6.412;2022-12-18T05:19:47;16.23;;;11.82;;
25535;SDS011;13431;51.352;6.412;2022-12-18T05:22:15;15.07;;;11.50;;
25535;SDS011;13431;51.352;6.412;2022-12-18T05:24:42;16.60;;;12.10;;
25535;SDS011;13431;51.352;6.412;2022-12-18T05:27:10;16.40;;;11.75;;
25535;SDS011;13431;51.352;6.412;2022-12-18T05:29:37;17.50;;;11.52;;
25535;SDS011;13431;51.352;6.412;2022-12-18T05:32:04;17.02;;;12.18;;
25535;SDS011;13431;51.352;6.412;2022-12-18T05:34:32;13.80;;;10.63;;
25535;SDS011;13431;51.352;6.412;2022-12-18T05:37:00;18.02;;;12.45;;
25535;SDS011;13431;51.352;6.412;2022-12-18T05:39:27;15.48;;;11.00;;
25535;SDS011;13431;51.352;6.412;2022-12-18T05:41:55;13.85;;;10.60;;
25535;SDS011;13431;51.352;6.412;2022-12-18T05:44:22;13.70;;;10.50;;
25535;SDS011;13431;51.352;6.412;2022-12-18T05:46:50;15.75;;;11.75;;
25535;SDS011;13431;51.352;6.412;2022-12-18T05:49:17;15.07;;;11.07;;
25535;SDS011;13431;51.352;6.412;2022-12-18T05:51:44;16.52;;;11.27;;
25535;SDS011;13431;51.352;6.412;2022-12-18T05:54:12;15.93;;;11.48;;
25535;SDS011;13431;51.352;6.412;2022-12-18T05:56:40;16.15;;;11.43;;
25535;SDS011;13431;51.352;6.412;2022-12-18T06:01:41;16.50;;;11.80;;
25535;SDS011;13431;51.352;6.412;2022-12-18T06:04:10;15.07;;;11.98;;
25535;SDS011;13431;51.352;6.412;2022-12-18T06:06:37;16.65;;;11.98;;
25535;SDS011;13431;51.352;6.412;2022-12-18T06:09:05;13.52;;;10.68;;
25535;SDS011;13431;51.352;6.412;2022-12-18T06:11:35;13.50;;;10.20;;
25535;SDS011;13431;51.352;6.412;2022-12-18T06:14:04;16.20;;;11.50;;
25535;SDS011;13431;51.352;6.412;2022-12-18T06:16:33;15.00;;;10.75;;
25535;SDS011;13431;51.352;6.412;2022-12-18T06:19:02;14.48;;;11.13;;
25535;SDS011;13431;51.352;6.412;2022-12-18T06:21:31;17.85;;;11.90;;
25535;SDS011;13431;51.352;6.412;2022-12-18T06:24:00;12.95;;;10.68;;
25535;SDS011;13431;51.352;6.412;2022-12-18T06:26:28;14.52;;;10.90;;
25535;SDS011;13431;51.352;6.412;2022-12-18T06:28:55;14.18;;;11.27;;
25535;SDS011;13431;51.352;6.412;2022-12-18T06:31:23;16.35;;;12.70;;
25535;SDS011;13431;51.352;6.412;2022-12-18T06:33:51;17.08;;;13.02;;
25535;SDS011;13431;51.352;6.412;2022-12-18T06:36:18;14.00;;;11.65;;
25535;SDS011;13431;51.352;6.412;2022-12-18T06:38:46;17.17;;;12.73;;
25535;SDS011;13431;51.352;6.412;2022-12-18T06:41:14;16.80;;;11.85;;
25535;SDS011;13431;51.352;6.412;2022-12-18T06:43:43;15.40;;;11.93;;
25535;SDS011;13431;51.352;6.412;2022-12-18T06:46:11;14.00;;;11.73;;
25535;SDS011;13431;51.352;6.412;2022-12-18T06:48:39;15.40;;;12.02;;
25535;SDS011;13431;51.352;6.412;2022-12-18T06:51:07;15.38;;;11.60;;
25535;SDS011;13431;51.352;6.412;2022-12-18T06:53:34;16.38;;;11.85;;
25535;SDS011;13431;51.352;6.412;2022-12-18T06:56:02;15.80;;;11.95;;
25535;SDS011;13431;51.352;6.412;2022-12-18T06:58:36;16.17;;;11.73;;
25535;SDS011;13431;51.352;6.412;2022-12-18T07:01:05;16.45;;;11.52;;
25535;SDS011;13431;51.352;6.412;2022-12-18T07:03:33;14.88;;;11.18;;
25535;SDS011;13431;51.352;6.412;2022-12-18T07:06:01;14.65;;;12.02;;
25535;SDS011;13431;51.352;6.412;2022-12-18T07:08:29;17.75;;;12.38;;
25535;SDS011;13431;51.352;6.412;2022-12-18T07:10:57;21.13;;;12.07;;
25535;SDS011;13431;51.352;6.412;2022-12-18T07:13:25;19.95;;;12.20;;
25535;SDS011;13431;51.352;6.412;2022-12-18T07:15:53;16.30;;;12.30;;
25535;SDS011;13431;51.352;6.412;2022-12-18T07:18:20;17.50;;;12.43;;
25535;SDS011;13431;51.352;6.412;2022-12-18T07:20:48;17.85;;;12.30;;
25535;SDS011;13431;51.352;6.412;2022-12-18T07:23:15;17.23;;;11.25;;
25535;SDS011;13431;51.352;6.412;2022-12-18T07:25:42;16.35;;;12.05;;
25535;SDS011;13431;51.352;6.412;2022-12-18T07:28:09;16.65;;;12.27;;
25535;SDS011;13431;51.352;6.412;2022-12-18T07:30:43;18.83;;;11.68;;
25535;SDS011;13431;51.352;6.412;2022-12-18T07:33:10;17.38;;;12.52;;
25535;SDS011;13431;51.352;6.412;2022-12-18T07:35:37;13.60;;;11.68;;
25535;SDS011;13431;51.352;6.412;2022-12-18T07:38:05;16.08;;;11.68;;
25535;SDS011;13431;51.352;6.412;2022-12-18T07:40:32;17.40;;;12.00;;
25535;SDS011;13431;51.352;6.412;2022-12-18T07:43:00;16.05;;;11.20;;
25535;SDS011;13431;51.352;6.412;2022-12-18T07:45:30;15.20;;;12.15;;
25535;SDS011;13431;51.352;6.412;2022-12-18T07:47:57;13.65;;;10.43;;
25535;SDS011;13431;51.352;6.412;2022-12-18T07:50:25;14.80;;;10.75;;
25535;SDS011;13431;51.352;6.412;2022-12-18T07:52:52;17.52;;;11.20;;
25535;SDS011;13431;51.352;6.412;2022-12-18T07:55:19;15.50;;;10.95;;
25535;SDS011;13431;51.352;6.412;2022-12-18T07:57:46;13.95;;;10.60;;
25535;SDS011;13431;51.352;6.412;2022-12-18T08:00:19;14.88;;;11.70;;
25535;SDS011;13431;51.352;6.412;2022-12-18T08:02:47;14.65;;;11.43;;
25535;SDS011;13431;51.352;6.412;2022-12-18T08:05:14;14.45;;;11.50;;
25535;SDS011;13431;51.352;6.412;2022-12-18T08:07:42;15.65;;;12.13;;
25535;SDS011;13431;51.352;6.412;2022-12-18T08:10:09;14.43;;;10.85;;
25535;SDS011;13431;51.352;6.412;2022-12-18T08:12:36;13.65;;;10.23;;
25535;SDS011;13431;51.352;6.412;2022-12-18T08:15:04;13.45;;;10.88;;
25535;SDS011;13431;51.352;6.412;2022-12-18T08:17:32;16.17;;;11.35;;
25535;SDS011;13431;51.352;6.412;2022-12-18T08:19:59;14.68;;;11.00;;
25535;SDS011;13431;51.352;6.412;2022-12-18T08:22:27;13.60;;;10.45;;
25535;SDS011;13431;51.352;6.412;2022-12-18T08:24:54;12.18;;;9.35;;
25535;SDS011;13431;51.352;6.412;2022-12-18T08:27:21;12.25;;;9.75;;
25535;SDS011;13431;51.352;6.412;2022-12-18T08:29:56;11.10;;;8.95;;
25535;SDS011;13431;51.352;6.412;2022-12-18T08:32:24;12.50;;;9.52;;
25535;SDS011;13431;51.352;6.412;2022-12-18T08:34:53;13.50;;;9.85;;
25535;SDS011;13431;51.352;6.412;2022-12-18T08:37:20;12.75;;;9.25;;
25535;SDS011;13431;51.352;6.412;2022-12-18T08:39:47;10.90;;;9.30;;
25535;SDS011;13431;51.352;6.412;2022-12-18T08:42:14;13.73;;;10.70;;
25535;SDS011;13431;51.352;6.412;2022-12-18T08:45:01;12.18;;;9.57;;
25535;SDS011;13431;51.352;6.412;2022-12-18T08:47:29;12.27;;;9.95;;
25535;SDS011;13431;51.352;6.412;2022-12-18T08:49:56;12.68;;;9.77;;
25535;SDS011;13431;51.352;6.412;2022-12-18T08:52:24;12.60;;;9.38;;
25535;SDS011;13431;51.352;6.412;2022-12-18T08:54:51;12.15;;;9.68;;
25535;SDS011;13431;51.352;6.412;2022-12-18T08:57:18;11.25;;;9.00;;
25535;SDS011;13431;51.352;6.412;2022-12-18T08:59:46;11.48;;;9.07;;
25535;SDS011;13431;51.352;6.412;2022-12-18T09:02:13;11.48;;;9.68;;
25535;SDS011;13431;51.352;6.412;2022-12-18T09:04:40;12.05;;;9.90;;
25535;SDS011;13431;51.352;6.412;2022-12-18T09:07:08;14.60;;;10.75;;
25535;SDS011;13431;51.352;6.412;2022-12-18T09:09:35;14.88;;;10.23;;
25535;SDS011;13431;51.352;6.412;2022-12-18T09:12:03;12.63;;;9.98;;
25535;SDS011;13431;51.352;6.412;2022-12-18T09:14:30;13.25;;;10.32;;
25535;SDS011;13431;51.352;6.412;2022-12-18T09:16:58;13.20;;;9.85;;
25535;SDS011;13431;51.352;6.412;2022-12-18T09:19:25;11.65;;;9.93;;
25535;SDS011;13431;51.352;6.412;2022-12-18T09:21:52;14.15;;;10.10;;
25535;SDS011;13431;51.352;6.412;2022-12-18T09:24:23;14.93;;;10.70;;
25535;SDS011;13431;51.352;6.412;2022-12-18T09:26:52;12.85;;;10.40;;
25535;SDS011;13431;51.352;6.412;2022-12-18T09:29:23;11.43;;;8.95;;
25535;SDS011;13431;51.352;6.412;2022-12-18T09:31:51;13.73;;;10.70;;
25535;SDS011;13431;51.352;6.412;2022-12-18T09:34:18;13.07;;;10.60;;
25535;SDS011;13431;51.352;6.412;2022-12-18T09:36:48;11.65;;;9.73;;
25535;SDS011;13431;51.352;6.412;2022-12-18T09:39:16;11.85;;;9.55;;
25535;SDS011;13431;51.352;6.412;2022-12-18T09:41:50;13.13;;;9.60;;
25535;SDS011;13431;51.352;6.412;2022-12-18T09:44:24;11.93;;;10.02;;
25535;SDS011;13431;51.352;6.412;2022-12-18T09:49:38;12.30;;;9.65;;
25535;SDS011;13431;51.352;6.412;2022-12-18T09:52:30;13.25;;;11.05;;
25535;SDS011;13431;51.352;6.412;2022-12-18T09:55:14;13.53;;;10.17;;
25535;SDS011;13431;51.352;6.412;2022-12-18T09:58:07;12.77;;;9.80;;
25535;SDS011;13431;51.352;6.412;2022-12-18T10:00:43;10.73;;;8.93;;
25535;SDS011;13431;51.352;6.412;2022-12-18T10:03:12;11.48;;;9.80;;
25535;SDS011;13431;51.352;6.412;2022-12-18T10:05:43;11.80;;;9.95;;
25535;SDS011;13431;51.352;6.412;2022-12-18T10:11:16;13.07;;;10.32;;
25535;SDS011;13431;51.352;6.412;2022-12-18T10:16:45;12.45;;;9.63;;
25535;SDS011;13431;51.352;6.412;2022-12-18T10:22:19;11.38;;;9.88;;
25535;SDS011;13431;51.352;6.412;2022-12-18T10:25:15;12.18;;;10.05;;
25535;SDS011;13431;51.352;6.412;2022-12-18T10:27:47;13.35;;;10.23;;
25535;SDS011;13431;51.352;6.412;2022-12-18T10:30:21;12.65;;;10.25;;
25535;SDS011;13431;51.352;6.412;2022-12-18T10:32:49;13.05;;;10.27;;
25535;SDS011;13431;51.352;6.412;2022-12-18T10:35:19;14.30;;;10.18;;
25535;SDS011;13431;51.352;6.412;2022-12-18T10:37:58;14.80;;;10.88;;
25535;SDS011;13431;51.352;6.412;2022-12-18T10:40:31;16.60;;;11.13;;
25535;SDS011;13431;51.352;6.412;2022-12-18T10:43:03;10.95;;;9.65;;
25535;SDS011;13431;51.352;6.412;2022-12-18T10:45:30;12.18;;;10.38;;
25535;SDS011;13431;51.352;6.412;2022-12-18T10:47:58;13.50;;;10.88;;
25535;SDS011;13431;51.352;6.412;2022-12-18T10:50:29;12.18;;;10.50;;
25535;SDS011;13431;51.352;6.412;2022-12-18T10:53:23;13.57;;;10.23;;
25535;SDS011;13431;51.352;6.412;2022-12-18T10:55:53;13.05;;;10.40;;
25535;SDS011;13431;51.352;6.412;2022-12-18T11:01:15;14.95;;;10.10;;
25535;SDS011;13431;51.352;6.412;2022-12-18T11:03:45;13.73;;;10.80;;
25535;SDS011;13431;51.352;6.412;2022-12-18T11:06:28;12.80;;;10.75;;
25535;SDS011;13431;51.352;6.412;2022-12-18T11:09:04;12.25;;;9.90;;
25535;SDS011;13431;51.352;6.412;2022-12-18T11:11:50;14.30;;;10.63;;
25535;SDS011;13431;51.352;6.412;2022-12-18T11:14:24;15.25;;;10.65;;
25535;SDS011;13431;51.352;6.412;2022-12-18T11:17:20;13.73;;;11.23;;
25535;SDS011;13431;51.352;6.412;2022-12-18T11:20:03;13.27;;;11.18;;
25535;SDS011;13431;51.352;6.412;2022-12-18T11:22:36;13.77;;;10.75;;
25535;SDS011;13431;51.352;6.412;2022-12-18T11:34:31;13.80;;;11.27;;
25535;SDS011;13431;51.352;6.412;2022-12-18T11:36:55;13.50;;;10.30;;
25535;SDS011;13431;51.352;6.412;2022-12-18T11:42:12;15.70;;;11.40;;
25535;SDS011;13431;51.352;6.412;2022-12-18T11:45:16;12.93;;;10.50;;
25535;SDS011;13431;51.352;6.412;2022-12-18T11:47:54;13.73;;;11.00;;
25535;SDS011;13431;51.352;6.412;2022-12-18T11:53:12;14.13;;;11.38;;
25535;SDS011;13431;51.352;6.412;2022-12-18T12:06:52;17.10;;;11.05;;
25535;SDS011;13431;51.352;6.412;2022-12-18T12:20:55;14.75;;;10.85;;
25535;SDS011;13431;51.352;6.412;2022-12-18T12:26:30;15.57;;;11.30;;
25535;SDS011;13431;51.352;6.412;2022-12-18T12:32:00;13.57;;;11.35;;
25535;SDS011;13431;51.352;6.412;2022-12-18T12:37:24;15.02;;;12.25;;
25535;SDS011;13431;51.352;6.412;2022-12-18T12:40:17;18.70;;;12.63;;
25535;SDS011;13431;51.352;6.412;2022-12-18T12:46:17;15.60;;;11.98;;
25535;SDS011;13431;51.352;6.412;2022-12-18T12:48:59;13.13;;;11.18;;
25535;SDS011;13431;51.352;6.412;2022-12-18T12:51:34;15.00;;;11.40;;
25535;SDS011;13431;51.352;6.412;2022-12-18T12:54:10;16.50;;;12.13;;
25535;SDS011;13431;51.352;6.412;2022-12-18T12:57:04;14.73;;;12.00;;
25535;SDS011;13431;51.352;6.412;2022-12-18T13:07:55;17.38;;;12.85;;
25535;SDS011;13431;51.352;6.412;2022-12-18T13:10:35;17.02;;;13.07;;
25535;SDS011;13431;51.352;6.412;2022-12-18T13:13:09;15.98;;;12.88;;
25535;SDS011;13431;51.352;6.412;2022-12-18T13:15:47;15.85;;;12.23;;
25535;SDS011;13431;51.352;6.412;2022-12-18T13:18:29;17.08;;;13.82;;
25535;SDS011;13431;51.352;6.412;2022-12-18T13:33:44;16.60;;;12.35;;
25535;SDS011;13431;51.352;6.412;2022-12-18T13:36:33;15.05;;;12.07;;
25535;SDS011;13431;51.352;6.412;2022-12-18T13:39:09;16.92;;;12.80;;
25535;SDS011;13431;51.352;6.412;2022-12-18T13:41:37;16.13;;;13.45;;
25535;SDS011;13431;51.352;6.412;2022-12-18T13:44:11;17.00;;;13.07;;
25535;SDS011;13431;51.352;6.412;2022-12-18T13:47:24;18.55;;;13.60;;
25535;SDS011;13431;51.352;6.412;2022-12-18T13:50:00;17.67;;;13.90;;
25535;SDS011;13431;51.352;6.412;2022-12-18T13:52:33;16.05;;;12.98;;
25535;SDS011;13431;51.352;6.412;2022-12-18T13:55:07;19.90;;;13.13;;
25535;SDS011;13431;51.352;6.412;2022-12-18T13:57:42;19.42;;;13.30;;
25535;SDS011;13431;51.352;6.412;2022-12-18T14:02:50;17.15;;;14.25;;
25535;SDS011;13431;51.352;6.412;2022-12-18T14:05:25;16.90;;;13.15;;
25535;SDS011;13431;51.352;6.412;2022-12-18T14:07:55;15.55;;;12.82;;
25535;SDS011;13431;51.352;6.412;2022-12-18T14:10:34;17.42;;;14.05;;
25535;SDS011;13431;51.352;6.412;2022-12-18T14:13:15;18.90;;;14.80;;
25535;SDS011;13431;51.352;6.412;2022-12-18T14:15:48;19.83;;;14.70;;
25535;SDS011;13431;51.352;6.412;2022-12-18T14:18:24;16.95;;;13.20;;
25535;SDS011;13431;51.352;6.412;2022-12-18T14:21:03;20.33;;;14.88;;
25535;SDS011;13431;51.352;6.412;2022-12-18T14:23:33;20.75;;;15.43;;
25535;SDS011;13431;51.352;6.412;2022-12-18T14:28:54;18.35;;;13.90;;
25535;SDS011;13431;51.352;6.412;2022-12-18T14:31:42;19.80;;;14.82;;
25535;SDS011;13431;51.352;6.412;2022-12-18T14:34:17;18.45;;;15.02;;
25535;SDS011;13431;51.352;6.412;2022-12-18T14:36:52;20.45;;;15.27;;
25535;SDS011;13431;51.352;6.412;2022-12-18T14:39:21;22.20;;;15.68;;
25535;SDS011;13431;51.352;6.412;2022-12-18T14:41:51;22.02;;;15.02;;
25535;SDS011;13431;51.352;6.412;2022-12-18T14:44:19;18.08;;;14.48;;
25535;SDS011;13431;51.352;6.412;2022-12-18T14:46:49;18.83;;;14.40;;
25535;SDS011;13431;51.352;6.412;2022-12-18T14:49:18;19.05;;;14.02;;
25535;SDS011;13431;51.352;6.412;2022-12-18T14:52:01;20.92;;;14.00;;
25535;SDS011;13431;51.352;6.412;2022-12-18T14:54:32;19.00;;;14.18;;
25535;SDS011;13431;51.352;6.412;2022-12-18T14:59:31;21.35;;;16.25;;
25535;SDS011;13431;51.352;6.412;2022-12-18T15:05:00;20.05;;;14.85;;
25535;SDS011;13431;51.352;6.412;2022-12-18T15:07:44;20.63;;;15.23;;
25535;SDS011;13431;51.352;6.412;2022-12-18T15:18:14;20.50;;;15.85;;
25535;SDS011;13431;51.352;6.412;2022-12-18T15:20:59;19.00;;;14.13;;
25535;SDS011;13431;51.352;6.412;2022-12-18T15:23:36;20.13;;;15.18;;
25535;SDS011;13431;51.352;6.412;2022-12-18T15:26:12;21.63;;;15.32;;
25535;SDS011;13431;51.352;6.412;2022-12-18T15:36:23;20.48;;;15.57;;
25535;SDS011;13431;51.352;6.412;2022-12-18T15:38:53;19.27;;;14.20;;
25535;SDS011;13431;51.352;6.412;2022-12-18T15:41:32;21.83;;;15.80;;
25535;SDS011;13431;51.352;6.412;2022-12-18T15:44:02;19.23;;;15.55;;
25535;SDS011;13431;51.352;6.412;2022-12-18T15:46:30;20.23;;;15.57;;
25535;SDS011;13431;51.352;6.412;2022-12-18T15:48:58;20.15;;;15.98;;
25535;SDS011;13431;51.352;6.412;2022-12-18T15:51:29;21.00;;;16.27;;
25535;SDS011;13431;51.352;6.412;2022-12-18T15:54:04;21.77;;;17.38;;
25535;SDS011;13431;51.352;6.412;2022-12-18T15:56:44;20.50;;;15.95;;
25535;SDS011;13431;51.352;6.412;2022-12-18T15:59:44;22.25;;;16.67;;
25535;SDS011;13431;51.352;6.412;2022-12-18T16:02:13;23.17;;;16.38;;
25535;SDS011;13431;51.352;6.412;2022-12-18T16:04:44;23.38;;;17.38;;
25535;SDS011;13431;51.352;6.412;2022-12-18T16:07:13;22.58;;;17.58;;
25535;SDS011;13431;51.352;6.412;2022-12-18T16:09:50;22.95;;;17.42;;
25535;SDS011;13431;51.352;6.412;2022-12-18T16:12:21;21.73;;;16.75;;
25535;SDS011;13431;51.352;6.412;2022-12-18T16:14:51;22.95;;;16.85;;
25535;SDS011;13431;51.352;6.412;2022-12-18T16:17:21;24.50;;;16.95;;
25535;SDS011;13431;51.352;6.412;2022-12-18T16:19:48;24.48;;;18.08;;
25535;SDS011;13431;51.352;6.412;2022-12-18T16:22:19;23.30;;;17.27;;
25535;SDS011;13431;51.352;6.412;2022-12-18T16:24:49;25.00;;;18.50;;
25535;SDS011;13431;51.352;6.412;2022-12-18T16:27:18;19.83;;;15.93;;
25535;SDS011;13431;51.352;6.412;2022-12-18T16:29:53;23.00;;;18.00;;
25535;SDS011;13431;51.352;6.412;2022-12-18T16:32:21;27.77;;;20.13;;
25535;SDS011;13431;51.352;6.412;2022-12-18T16:34:50;27.55;;;19.02;;
25535;SDS011;13431;51.352;6.412;2022-12-18T16:37:20;22.13;;;16.52;;
25535;SDS011;13431;51.352;6.412;2022-12-18T16:39:48;23.20;;;17.65;;
25535;SDS011;13431;51.352;6.412;2022-12-18T16:42:17;24.15;;;18.10;;
25535;SDS011;13431;51.352;6.412;2022-12-18T16:44:47;21.48;;;16.23;;
25535;SDS011;13431;51.352;6.412;2022-12-18T16:47:16;24.23;;;18.45;;
25535;SDS011;13431;51.352;6.412;2022-12-18T16:49:47;22.13;;;17.42;;
25535;SDS011;13431;51.352;6.412;2022-12-18T16:52:18;20.55;;;16.65;;
25535;SDS011;13431;51.352;6.412;2022-12-18T16:54:47;22.20;;;16.80;;
25535;SDS011;13431;51.352;6.412;2022-12-18T16:57:16;22.73;;;17.70;;
25535;SDS011;13431;51.352;6.412;2022-12-18T16:59:47;24.27;;;17.70;;
25535;SDS011;13431;51.352;6.412;2022-12-18T17:04:53;22.77;;;19.13;;
25535;SDS011;13431;51.352;6.412;2022-12-18T17:07:22;23.92;;;18.55;;
25535;SDS011;13431;51.352;6.412;2022-12-18T17:09:54;23.85;;;17.85;;
25535;SDS011;13431;51.352;6.412;2022-12-18T17:12:22;24.30;;;19.00;;
25535;SDS011;13431;51.352;6.412;2022-12-18T17:14:53;24.52;;;18.23;;
25535;SDS011;13431;51.352;6.412;2022-12-18T17:17:20;23.17;;;18.92;;
25535;SDS011;13431;51.352;6.412;2022-12-18T17:19:54;25.38;;;17.95;;
25535;SDS011;13431;51.352;6.412;2022-12-18T17:22:24;27.60;;;18.83;;
25535;SDS011;13431;51.352;6.412;2022-12-18T17:24:52;26.17;;;18.50;;